sensor_id;sensor_type;location;lat;lon;timestamp;temperature;humidity
22968;DHT22;11650;48.106;-1.696;2022-12-07T00:01:31;3.30;99.90
22968;DHT22;11650;48.106;-1.696;2022-12-07T00:03:59;3.30;99.90
22968;DHT22;11650;48.106;-1.696;2022-12-07T00:06:39;3.30;99.90
22968;DHT22;11650;48.106;-1.696;2022-12-07T00:09:07;3.30;99.90
22968;DHT22;11650;48.106;-1.696;2022-12-07T00:11:34;3.30;99.90
22968;DHT22;11650;48.106;-1.696;2022-12-07T00:14:02;3.30;99.90
22968;DHT22;11650;48.106;-1.696;2022-12-07T00:16:30;3.30;99.90
22968;DHT22;11650;48.106;-1.696;2022-12-07T00:18:57;3.40;99.90
22968;DHT22;11650;48.106;-1.696;2022-12-07T00:21:28;3.40;99.90
22968;DHT22;11650;48.106;-1.696;2022-12-07T00:23:54;3.40;99.90
22968;DHT22;11650;48.106;-1.696;2022-12-07T00:28:52;3.40;99.90
22968;DHT22;11650;48.106;-1.696;2022-12-07T00:31:22;3.40;99.90
22968;DHT22;11650;48.106;-1.696;2022-12-07T00:33:49;3.30;99.90
22968;DHT22;11650;48.106;-1.696;2022-12-07T00:36:17;3.40;99.90
22968;DHT22;11650;48.106;-1.696;2022-12-07T00:38:43;3.30;99.90
22968;DHT22;11650;48.106;-1.696;2022-12-07T00:41:12;3.30;99.90
22968;DHT22;11650;48.106;-1.696;2022-12-07T00:43:38;3.40;99.90
22968;DHT22;11650;48.106;-1.696;2022-12-07T00:46:04;3.30;99.90
22968;DHT22;11650;48.106;-1.696;2022-12-07T00:48:30;3.30;99.90
22968;DHT22;11650;48.106;-1.696;2022-12-07T00:50:56;3.30;99.90
22968;DHT22;11650;48.106;-1.696;2022-12-07T00:53:21;3.30;99.90
22968;DHT22;11650;48.106;-1.696;2022-12-07T00:55:47;3.30;99.90
22968;DHT22;11650;48.106;-1.696;2022-12-07T00:58:13;3.30;99.90
22968;DHT22;11650;48.106;-1.696;2022-12-07T01:00:41;3.20;99.90
22968;DHT22;11650;48.106;-1.696;2022-12-07T01:03:09;3.20;99.90
22968;DHT22;11650;48.106;-1.696;2022-12-07T01:05:35;3.20;99.90
22968;DHT22;11650;48.106;-1.696;2022-12-07T01:08:01;3.20;99.90
22968;DHT22;11650;48.106;-1.696;2022-12-07T01:10:27;3.20;99.90
22968;DHT22;11650;48.106;-1.696;2022-12-07T01:12:54;3.20;99.90
22968;DHT22;11650;48.106;-1.696;2022-12-07T01:15:19;3.20;99.90
22968;DHT22;11650;48.106;-1.696;2022-12-07T01:17:45;3.20;99.90
22968;DHT22;11650;48.106;-1.696;2022-12-07T01:20:11;3.20;99.90
22968;DHT22;11650;48.106;-1.696;2022-12-07T01:22:38;3.20;99.90
22968;DHT22;11650;48.106;-1.696;2022-12-07T01:25:05;3.20;99.90
22968;DHT22;11650;48.106;-1.696;2022-12-07T01:27:31;3.10;99.90
22968;DHT22;11650;48.106;-1.696;2022-12-07T01:29:57;3.10;99.90
22968;DHT22;11650;48.106;-1.696;2022-12-07T01:32:23;3.20;99.90
22968;DHT22;11650;48.106;-1.696;2022-12-07T01:34:48;3.10;99.90
22968;DHT22;11650;48.106;-1.696;2022-12-07T01:37:14;3.00;99.90
22968;DHT22;11650;48.106;-1.696;2022-12-07T01:39:40;3.00;99.90
22968;DHT22;11650;48.106;-1.696;2022-12-07T01:42:10;2.80;99.90
22968;DHT22;11650;48.106;-1.696;2022-12-07T01:47:40;2.60;99.90
22968;DHT22;11650;48.106;-1.696;2022-12-07T01:50:06;2.50;99.90
22968;DHT22;11650;48.106;-1.696;2022-12-07T01:52:33;2.40;99.90
22968;DHT22;11650;48.106;-1.696;2022-12-07T01:55:09;2.30;99.90
22968;DHT22;11650;48.106;-1.696;2022-12-07T01:57:40;2.30;99.90
22968;DHT22;11650;48.106;-1.696;2022-12-07T02:00:08;2.20;99.90
22968;DHT22;11650;48.106;-1.696;2022-12-07T02:02:38;2.10;99.90
22968;DHT22;11650;48.106;-1.696;2022-12-07T02:05:07;2.00;99.90
22968;DHT22;11650;48.106;-1.696;2022-12-07T02:07:35;2.00;99.90
22968;DHT22;11650;48.106;-1.696;2022-12-07T02:10:31;1.90;99.90
22968;DHT22;11650;48.106;-1.696;2022-12-07T02:13:08;1.90;99.90
22968;DHT22;11650;48.106;-1.696;2022-12-07T02:16:03;1.90;99.90
22968;DHT22;11650;48.106;-1.696;2022-12-07T02:31:55;1.60;99.90
22968;DHT22;11650;48.106;-1.696;2022-12-07T02:36:57;1.60;99.90
22968;DHT22;11650;48.106;-1.696;2022-12-07T02:39:57;1.60;99.90
22968;DHT22;11650;48.106;-1.696;2022-12-07T02:42:33;1.50;99.90
22968;DHT22;11650;48.106;-1.696;2022-12-07T02:45:00;1.50;99.90
22968;DHT22;11650;48.106;-1.696;2022-12-07T02:47:27;1.50;99.90
22968;DHT22;11650;48.106;-1.696;2022-12-07T02:49:54;1.50;99.90
22968;DHT22;11650;48.106;-1.696;2022-12-07T02:52:20;1.50;99.90
22968;DHT22;11650;48.106;-1.696;2022-12-07T02:54:46;1.50;99.90
22968;DHT22;11650;48.106;-1.696;2022-12-07T03:00:16;1.50;99.90
22968;DHT22;11650;48.106;-1.696;2022-12-07T03:16:21;1.30;99.90
22968;DHT22;11650;48.106;-1.696;2022-12-07T03:18:55;1.40;99.90
22968;DHT22;11650;48.106;-1.696;2022-12-07T03:21:33;1.30;99.90
22968;DHT22;11650;48.106;-1.696;2022-12-07T03:24:04;1.30;99.90
22968;DHT22;11650;48.106;-1.696;2022-12-07T03:26:37;1.30;99.90
22968;DHT22;11650;48.106;-1.696;2022-12-07T03:29:12;1.20;99.90
22968;DHT22;11650;48.106;-1.696;2022-12-07T03:31:43;1.20;99.90
22968;DHT22;11650;48.106;-1.696;2022-12-07T03:37:17;1.20;99.90
22968;DHT22;11650;48.106;-1.696;2022-12-07T03:39:59;1.20;99.90
22968;DHT22;11650;48.106;-1.696;2022-12-07T03:42:26;1.20;99.90
22968;DHT22;11650;48.106;-1.696;2022-12-07T03:44:52;1.20;99.90
22968;DHT22;11650;48.106;-1.696;2022-12-07T03:47:42;1.20;99.90
22968;DHT22;11650;48.106;-1.696;2022-12-07T03:53:13;1.10;99.90
22968;DHT22;11650;48.106;-1.696;2022-12-07T03:55:43;1.10;99.90
22968;DHT22;11650;48.106;-1.696;2022-12-07T03:58:13;1.10;99.90
22968;DHT22;11650;48.106;-1.696;2022-12-07T04:00:42;1.00;99.90
22968;DHT22;11650;48.106;-1.696;2022-12-07T04:03:08;1.10;99.90
22968;DHT22;11650;48.106;-1.696;2022-12-07T04:05:33;1.00;99.90
22968;DHT22;11650;48.106;-1.696;2022-12-07T04:08:00;1.10;99.90
22968;DHT22;11650;48.106;-1.696;2022-12-07T04:10:25;1.10;99.90
22968;DHT22;11650;48.106;-1.696;2022-12-07T04:12:51;1.10;99.90
22968;DHT22;11650;48.106;-1.696;2022-12-07T04:15:17;1.10;99.90
22968;DHT22;11650;48.106;-1.696;2022-12-07T04:17:42;1.10;99.90
22968;DHT22;11650;48.106;-1.696;2022-12-07T04:20:08;1.00;99.90
22968;DHT22;11650;48.106;-1.696;2022-12-07T04:22:34;1.00;99.90
22968;DHT22;11650;48.106;-1.696;2022-12-07T04:25:00;0.90;99.90
22968;DHT22;11650;48.106;-1.696;2022-12-07T04:27:25;0.90;99.90
22968;DHT22;11650;48.106;-1.696;2022-12-07T04:29:52;0.90;99.90
22968;DHT22;11650;48.106;-1.696;2022-12-07T04:32:18;0.90;99.90
22968;DHT22;11650;48.106;-1.696;2022-12-07T04:34:43;0.90;99.90
22968;DHT22;11650;48.106;-1.696;2022-12-07T04:37:09;0.90;99.90
22968;DHT22;11650;48.106;-1.696;2022-12-07T04:39:34;0.80;99.90
22968;DHT22;11650;48.106;-1.696;2022-12-07T04:42:01;0.80;99.90
22968;DHT22;11650;48.106;-1.696;2022-12-07T04:44:27;0.80;99.90
22968;DHT22;11650;48.106;-1.696;2022-12-07T04:46:54;0.80;99.90
22968;DHT22;11650;48.106;-1.696;2022-12-07T04:49:20;0.80;99.90
22968;DHT22;11650;48.106;-1.696;2022-12-07T04:51:47;0.80;99.90
22968;DHT22;11650;48.106;-1.696;2022-12-07T04:54:14;0.80;99.90
22968;DHT22;11650;48.106;-1.696;2022-12-07T04:56:40;0.80;99.90
22968;DHT22;11650;48.106;-1.696;2022-12-07T04:59:06;0.80;99.90
22968;DHT22;11650;48.106;-1.696;2022-12-07T05:01:32;0.80;99.90
22968;DHT22;11650;48.106;-1.696;2022-12-07T05:03:58;0.80;99.90
22968;DHT22;11650;48.106;-1.696;2022-12-07T05:06:24;0.80;99.90
22968;DHT22;11650;48.106;-1.696;2022-12-07T05:08:50;0.80;99.90
22968;DHT22;11650;48.106;-1.696;2022-12-07T05:11:16;0.90;99.90
22968;DHT22;11650;48.106;-1.696;2022-12-07T05:14:02;0.80;99.90
22968;DHT22;11650;48.106;-1.696;2022-12-07T05:16:28;0.90;99.90
22968;DHT22;11650;48.106;-1.696;2022-12-07T05:18:54;0.90;99.90
22968;DHT22;11650;48.106;-1.696;2022-12-07T05:21:19;0.80;99.90
22968;DHT22;11650;48.106;-1.696;2022-12-07T05:23:45;0.80;99.90
22968;DHT22;11650;48.106;-1.696;2022-12-07T05:26:11;0.80;99.90
22968;DHT22;11650;48.106;-1.696;2022-12-07T05:28:36;0.80;99.90
22968;DHT22;11650;48.106;-1.696;2022-12-07T05:31:02;0.80;99.90
22968;DHT22;11650;48.106;-1.696;2022-12-07T05:33:28;0.80;99.90
22968;DHT22;11650;48.106;-1.696;2022-12-07T05:35:54;0.90;99.90
22968;DHT22;11650;48.106;-1.696;2022-12-07T05:38:20;0.80;99.90
22968;DHT22;11650;48.106;-1.696;2022-12-07T05:40:45;0.80;99.90
22968;DHT22;11650;48.106;-1.696;2022-12-07T05:43:11;0.70;99.90
22968;DHT22;11650;48.106;-1.696;2022-12-07T05:45:36;0.80;99.90
22968;DHT22;11650;48.106;-1.696;2022-12-07T05:48:02;0.70;99.90
22968;DHT22;11650;48.106;-1.696;2022-12-07T05:50:28;0.90;99.90
22968;DHT22;11650;48.106;-1.696;2022-12-07T05:52:54;0.80;99.90
22968;DHT22;11650;48.106;-1.696;2022-12-07T05:55:19;0.80;99.90
22968;DHT22;11650;48.106;-1.696;2022-12-07T05:57:45;0.90;99.90
22968;DHT22;11650;48.106;-1.696;2022-12-07T06:00:31;0.80;99.90
22968;DHT22;11650;48.106;-1.696;2022-12-07T06:02:56;0.80;99.90
22968;DHT22;11650;48.106;-1.696;2022-12-07T06:05:22;0.60;99.90
22968;DHT22;11650;48.106;-1.696;2022-12-07T06:07:48;0.50;99.90
22968;DHT22;11650;48.106;-1.696;2022-12-07T06:10:13;0.40;99.90
22968;DHT22;11650;48.106;-1.696;2022-12-07T06:12:39;0.50;99.90
22968;DHT22;11650;48.106;-1.696;2022-12-07T06:15:08;0.50;99.90
22968;DHT22;11650;48.106;-1.696;2022-12-07T06:17:35;0.50;99.90
22968;DHT22;11650;48.106;-1.696;2022-12-07T06:20:00;0.50;99.90
22968;DHT22;11650;48.106;-1.696;2022-12-07T06:22:26;0.50;99.90
22968;DHT22;11650;48.106;-1.696;2022-12-07T06:24:52;0.50;99.90
22968;DHT22;11650;48.106;-1.696;2022-12-07T06:27:17;0.50;99.90
22968;DHT22;11650;48.106;-1.696;2022-12-07T06:29:43;0.50;99.90
22968;DHT22;11650;48.106;-1.696;2022-12-07T06:32:09;0.40;99.90
22968;DHT22;11650;48.106;-1.696;2022-12-07T06:34:34;0.50;99.90
22968;DHT22;11650;48.106;-1.696;2022-12-07T06:37:00;0.50;99.90
22968;DHT22;11650;48.106;-1.696;2022-12-07T06:39:27;0.60;99.90
22968;DHT22;11650;48.106;-1.696;2022-12-07T06:41:53;0.50;99.90
22968;DHT22;11650;48.106;-1.696;2022-12-07T06:44:20;0.50;99.90
22968;DHT22;11650;48.106;-1.696;2022-12-07T06:46:47;0.50;99.90
22968;DHT22;11650;48.106;-1.696;2022-12-07T06:49:12;0.50;99.90
22968;DHT22;11650;48.106;-1.696;2022-12-07T06:51:38;0.50;99.90
22968;DHT22;11650;48.106;-1.696;2022-12-07T06:54:10;0.40;99.90
22968;DHT22;11650;48.106;-1.696;2022-12-07T06:56:37;0.40;99.90
22968;DHT22;11650;48.106;-1.696;2022-12-07T06:59:03;0.40;99.90
22968;DHT22;11650;48.106;-1.696;2022-12-07T07:01:30;0.40;99.90
22968;DHT22;11650;48.106;-1.696;2022-12-07T07:03:56;0.40;99.90
22968;DHT22;11650;48.106;-1.696;2022-12-07T07:06:22;0.40;99.90
22968;DHT22;11650;48.106;-1.696;2022-12-07T07:08:47;0.40;99.90
22968;DHT22;11650;48.106;-1.696;2022-12-07T07:11:13;0.40;99.90
22968;DHT22;11650;48.106;-1.696;2022-12-07T07:13:39;0.40;99.90
22968;DHT22;11650;48.106;-1.696;2022-12-07T07:16:05;0.50;99.90
22968;DHT22;11650;48.106;-1.696;2022-12-07T07:18:31;0.50;99.90
22968;DHT22;11650;48.106;-1.696;2022-12-07T07:20:57;0.50;99.90
22968;DHT22;11650;48.106;-1.696;2022-12-07T07:23:22;0.50;99.90
22968;DHT22;11650;48.106;-1.696;2022-12-07T07:25:48;0.60;99.90
22968;DHT22;11650;48.106;-1.696;2022-12-07T07:28:15;0.50;99.90
22968;DHT22;11650;48.106;-1.696;2022-12-07T07:30:41;0.50;99.90
22968;DHT22;11650;48.106;-1.696;2022-12-07T07:33:07;0.50;99.90
22968;DHT22;11650;48.106;-1.696;2022-12-07T07:35:34;0.60;99.90
22968;DHT22;11650;48.106;-1.696;2022-12-07T07:38:00;0.60;99.90
22968;DHT22;11650;48.106;-1.696;2022-12-07T07:40:26;0.60;99.90
22968;DHT22;11650;48.106;-1.696;2022-12-07T07:42:54;0.60;99.90
22968;DHT22;11650;48.106;-1.696;2022-12-07T07:45:21;0.80;99.90
22968;DHT22;11650;48.106;-1.696;2022-12-07T07:47:47;0.80;99.90
22968;DHT22;11650;48.106;-1.696;2022-12-07T07:50:13;0.80;99.90
22968;DHT22;11650;48.106;-1.696;2022-12-07T07:52:40;0.80;99.90
22968;DHT22;11650;48.106;-1.696;2022-12-07T07:55:06;0.90;99.90
22968;DHT22;11650;48.106;-1.696;2022-12-07T07:57:35;0.90;99.90
22968;DHT22;11650;48.106;-1.696;2022-12-07T08:00:02;0.90;99.90
22968;DHT22;11650;48.106;-1.696;2022-12-07T08:02:28;0.90;99.90
22968;DHT22;11650;48.106;-1.696;2022-12-07T08:04:55;1.00;99.90
22968;DHT22;11650;48.106;-1.696;2022-12-07T08:07:20;0.90;99.90
22968;DHT22;11650;48.106;-1.696;2022-12-07T08:09:46;0.90;99.90
22968;DHT22;11650;48.106;-1.696;2022-12-07T08:12:12;1.00;99.90
22968;DHT22;11650;48.106;-1.696;2022-12-07T08:14:38;1.20;99.90
22968;DHT22;11650;48.106;-1.696;2022-12-07T08:17:03;1.20;99.90
22968;DHT22;11650;48.106;-1.696;2022-12-07T08:19:29;1.20;99.90
22968;DHT22;11650;48.106;-1.696;2022-12-07T08:21:55;1.20;99.90
22968;DHT22;11650;48.106;-1.696;2022-12-07T08:24:21;1.40;99.90
22968;DHT22;11650;48.106;-1.696;2022-12-07T08:26:47;1.50;99.90
22968;DHT22;11650;48.106;-1.696;2022-12-07T08:29:13;1.50;99.90
22968;DHT22;11650;48.106;-1.696;2022-12-07T08:31:39;1.50;99.90
22968;DHT22;11650;48.106;-1.696;2022-12-07T08:34:05;1.60;99.90
22968;DHT22;11650;48.106;-1.696;2022-12-07T08:36:30;1.60;99.90
22968;DHT22;11650;48.106;-1.696;2022-12-07T08:38:56;1.70;99.90
22968;DHT22;11650;48.106;-1.696;2022-12-07T08:41:21;1.70;99.90
22968;DHT22;11650;48.106;-1.696;2022-12-07T08:43:47;1.90;99.90
22968;DHT22;11650;48.106;-1.696;2022-12-07T08:46:23;2.00;99.90
22968;DHT22;11650;48.106;-1.696;2022-12-07T08:48:54;2.00;99.90
22968;DHT22;11650;48.106;-1.696;2022-12-07T08:51:21;2.10;99.90
22968;DHT22;11650;48.106;-1.696;2022-12-07T08:53:49;2.20;99.90
22968;DHT22;11650;48.106;-1.696;2022-12-07T08:56:15;2.10;99.90
22968;DHT22;11650;48.106;-1.696;2022-12-07T08:58:41;2.10;99.90
22968;DHT22;11650;48.106;-1.696;2022-12-07T09:01:08;2.10;99.90
22968;DHT22;11650;48.106;-1.696;2022-12-07T09:03:33;2.10;99.90
22968;DHT22;11650;48.106;-1.696;2022-12-07T09:05:59;2.30;99.90
22968;DHT22;11650;48.106;-1.696;2022-12-07T09:08:36;2.20;99.90
22968;DHT22;11650;48.106;-1.696;2022-12-07T09:11:04;2.20;99.90
22968;DHT22;11650;48.106;-1.696;2022-12-07T09:13:29;2.20;99.90
22968;DHT22;11650;48.106;-1.696;2022-12-07T09:15:55;2.20;99.90
22968;DHT22;11650;48.106;-1.696;2022-12-07T09:18:21;2.30;99.90
22968;DHT22;11650;48.106;-1.696;2022-12-07T09:20:46;2.30;99.90
22968;DHT22;11650;48.106;-1.696;2022-12-07T09:23:12;2.30;99.90
22968;DHT22;11650;48.106;-1.696;2022-12-07T09:25:37;2.30;99.90
22968;DHT22;11650;48.106;-1.696;2022-12-07T09:28:03;2.40;99.90
22968;DHT22;11650;48.106;-1.696;2022-12-07T09:30:29;2.40;99.90
22968;DHT22;11650;48.106;-1.696;2022-12-07T09:32:56;2.40;99.90
22968;DHT22;11650;48.106;-1.696;2022-12-07T09:35:23;2.50;99.90
22968;DHT22;11650;48.106;-1.696;2022-12-07T09:37:49;2.40;99.90
22968;DHT22;11650;48.106;-1.696;2022-12-07T09:40:16;2.60;99.90
22968;DHT22;11650;48.106;-1.696;2022-12-07T09:42:47;2.60;99.90
22968;DHT22;11650;48.106;-1.696;2022-12-07T09:45:21;2.40;99.90
22968;DHT22;11650;48.106;-1.696;2022-12-07T09:47:47;2.50;99.90
22968;DHT22;11650;48.106;-1.696;2022-12-07T09:50:22;2.70;99.90
22968;DHT22;11650;48.106;-1.696;2022-12-07T09:52:49;2.80;99.90
22968;DHT22;11650;48.106;-1.696;2022-12-07T09:55:24;2.80;99.90
22968;DHT22;11650;48.106;-1.696;2022-12-07T09:57:50;2.80;99.90
22968;DHT22;11650;48.106;-1.696;2022-12-07T10:00:20;2.90;99.90
22968;DHT22;11650;48.106;-1.696;2022-12-07T10:02:57;2.90;99.90
22968;DHT22;11650;48.106;-1.696;2022-12-07T10:05:47;3.10;99.90
22968;DHT22;11650;48.106;-1.696;2022-12-07T10:08:14;3.30;99.90
22968;DHT22;11650;48.106;-1.696;2022-12-07T10:10:43;3.30;99.90
22968;DHT22;11650;48.106;-1.696;2022-12-07T10:13:11;3.40;99.90
22968;DHT22;11650;48.106;-1.696;2022-12-07T10:15:56;3.50;99.90
22968;DHT22;11650;48.106;-1.696;2022-12-07T10:18:32;3.60;99.90
22968;DHT22;11650;48.106;-1.696;2022-12-07T10:21:19;3.70;99.90
22968;DHT22;11650;48.106;-1.696;2022-12-07T10:29:23;3.70;99.90
22968;DHT22;11650;48.106;-1.696;2022-12-07T10:32:00;3.70;99.90
22968;DHT22;11650;48.106;-1.696;2022-12-07T10:34:29;3.70;99.90
22968;DHT22;11650;48.106;-1.696;2022-12-07T10:37:19;3.70;99.90
22968;DHT22;11650;48.106;-1.696;2022-12-07T10:39:53;3.60;99.90
22968;DHT22;11650;48.106;-1.696;2022-12-07T10:42:29;3.70;99.90
22968;DHT22;11650;48.106;-1.696;2022-12-07T10:45:17;3.60;99.90
22968;DHT22;11650;48.106;-1.696;2022-12-07T10:48:06;3.60;99.90
22968;DHT22;11650;48.106;-1.696;2022-12-07T10:50:58;3.40;99.90
22968;DHT22;11650;48.106;-1.696;2022-12-07T10:56:29;3.30;99.90
22968;DHT22;11650;48.106;-1.696;2022-12-07T11:04:59;3.30;99.90
22968;DHT22;11650;48.106;-1.696;2022-12-07T11:16:18;3.40;99.90
22968;DHT22;11650;48.106;-1.696;2022-12-07T11:19:10;3.70;99.90
22968;DHT22;11650;48.106;-1.696;2022-12-07T11:22:12;3.70;99.90
22968;DHT22;11650;48.106;-1.696;2022-12-07T11:35:11;4.50;99.90
22968;DHT22;11650;48.106;-1.696;2022-12-07T11:37:39;4.40;99.90
22968;DHT22;11650;48.106;-1.696;2022-12-07T11:40:25;4.30;99.90
22968;DHT22;11650;48.106;-1.696;2022-12-07T11:43:06;4.60;99.90
22968;DHT22;11650;48.106;-1.696;2022-12-07T11:45:37;4.60;99.90
22968;DHT22;11650;48.106;-1.696;2022-12-07T11:48:31;4.30;99.90
22968;DHT22;11650;48.106;-1.696;2022-12-07T11:51:00;4.30;99.90
22968;DHT22;11650;48.106;-1.696;2022-12-07T11:56:03;4.70;99.90
22968;DHT22;11650;48.106;-1.696;2022-12-07T11:58:50;4.90;99.90
22968;DHT22;11650;48.106;-1.696;2022-12-07T12:01:48;4.70;99.90
22968;DHT22;11650;48.106;-1.696;2022-12-07T12:06:53;4.40;99.90
22968;DHT22;11650;48.106;-1.696;2022-12-07T12:10:30;4.60;99.90
22968;DHT22;11650;48.106;-1.696;2022-12-07T12:20:45;8.30;99.90
22968;DHT22;11650;48.106;-1.696;2022-12-07T12:25:46;9.00;99.90
22968;DHT22;11650;48.106;-1.696;2022-12-07T12:31:38;8.10;99.90
22968;DHT22;11650;48.106;-1.696;2022-12-07T12:34:01;8.40;99.90
22968;DHT22;11650;48.106;-1.696;2022-12-07T12:36:45;9.50;99.90
22968;DHT22;11650;48.106;-1.696;2022-12-07T12:39:16;10.50;99.90
22968;DHT22;11650;48.106;-1.696;2022-12-07T12:46:55;11.40;99.90
22968;DHT22;11650;48.106;-1.696;2022-12-07T12:51:59;12.00;99.90
22968;DHT22;11650;48.106;-1.696;2022-12-07T12:54:33;11.20;99.90
22968;DHT22;11650;48.106;-1.696;2022-12-07T13:03:04;12.80;99.90
22968;DHT22;11650;48.106;-1.696;2022-12-07T13:15:53;13.90;99.90
22968;DHT22;11650;48.106;-1.696;2022-12-07T13:24:09;14.60;99.90
22968;DHT22;11650;48.106;-1.696;2022-12-07T13:34:41;14.00;99.90
22968;DHT22;11650;48.106;-1.696;2022-12-07T13:37:25;14.80;99.90
22968;DHT22;11650;48.106;-1.696;2022-12-07T13:39:54;15.20;99.90
22968;DHT22;11650;48.106;-1.696;2022-12-07T13:42:31;14.80;99.90
22968;DHT22;11650;48.106;-1.696;2022-12-07T13:44:59;15.10;99.90
22968;DHT22;11650;48.106;-1.696;2022-12-07T13:47:32;13.80;99.90
22968;DHT22;11650;48.106;-1.696;2022-12-07T13:50:00;14.50;99.90
22968;DHT22;11650;48.106;-1.696;2022-12-07T13:52:30;15.00;99.90
22968;DHT22;11650;48.106;-1.696;2022-12-07T13:57:31;14.60;99.90
22968;DHT22;11650;48.106;-1.696;2022-12-07T13:59:59;14.80;99.90
22968;DHT22;11650;48.106;-1.696;2022-12-07T14:02:28;15.40;99.90
22968;DHT22;11650;48.106;-1.696;2022-12-07T14:05:22;15.80;99.90
22968;DHT22;11650;48.106;-1.696;2022-12-07T14:13:31;15.30;99.90
22968;DHT22;11650;48.106;-1.696;2022-12-07T14:15:58;15.60;99.90
22968;DHT22;11650;48.106;-1.696;2022-12-07T14:18:40;16.60;99.90
22968;DHT22;11650;48.106;-1.696;2022-12-07T14:23:34;15.30;99.90
22968;DHT22;11650;48.106;-1.696;2022-12-07T14:26:07;16.20;99.90
22968;DHT22;11650;48.106;-1.696;2022-12-07T14:28:35;16.00;99.90
22968;DHT22;11650;48.106;-1.696;2022-12-07T14:31:02;15.90;99.90
22968;DHT22;11650;48.106;-1.696;2022-12-07T14:33:28;16.50;99.90
22968;DHT22;11650;48.106;-1.696;2022-12-07T14:35:54;16.50;99.90
22968;DHT22;11650;48.106;-1.696;2022-12-07T14:38:25;16.30;99.90
22968;DHT22;11650;48.106;-1.696;2022-12-07T14:40:52;16.20;99.90
22968;DHT22;11650;48.106;-1.696;2022-12-07T14:43:38;16.30;99.90
22968;DHT22;11650;48.106;-1.696;2022-12-07T14:46:05;16.30;99.90
22968;DHT22;11650;48.106;-1.696;2022-12-07T14:48:31;15.70;99.90
22968;DHT22;11650;48.106;-1.696;2022-12-07T14:50:56;16.10;99.90
22968;DHT22;11650;48.106;-1.696;2022-12-07T14:53:29;16.50;99.90
22968;DHT22;11650;48.106;-1.696;2022-12-07T14:55:56;17.00;99.90
22968;DHT22;11650;48.106;-1.696;2022-12-07T14:58:22;17.00;99.90
22968;DHT22;11650;48.106;-1.696;2022-12-07T15:00:48;16.30;99.90
22968;DHT22;11650;48.106;-1.696;2022-12-07T15:03:14;16.10;99.90
22968;DHT22;11650;48.106;-1.696;2022-12-07T15:05:40;16.00;99.90
22968;DHT22;11650;48.106;-1.696;2022-12-07T15:08:08;15.10;99.90
22968;DHT22;11650;48.106;-1.696;2022-12-07T15:10:34;15.20;99.90
22968;DHT22;11650;48.106;-1.696;2022-12-07T15:13:02;14.90;99.90
22968;DHT22;11650;48.106;-1.696;2022-12-07T15:15:47;14.80;99.90
22968;DHT22;11650;48.106;-1.696;2022-12-07T15:18:14;14.50;99.90
22968;DHT22;11650;48.106;-1.696;2022-12-07T15:20:40;14.20;99.90
22968;DHT22;11650;48.106;-1.696;2022-12-07T15:23:06;14.30;99.90
22968;DHT22;11650;48.106;-1.696;2022-12-07T15:25:32;14.30;99.90
22968;DHT22;11650;48.106;-1.696;2022-12-07T15:27:59;14.10;99.90
22968;DHT22;11650;48.106;-1.696;2022-12-07T15:30:24;13.50;99.90
22968;DHT22;11650;48.106;-1.696;2022-12-07T15:32:53;13.40;99.90
22968;DHT22;11650;48.106;-1.696;2022-12-07T15:35:19;13.00;99.90
22968;DHT22;11650;48.106;-1.696;2022-12-07T15:37:46;12.60;99.90
22968;DHT22;11650;48.106;-1.696;2022-12-07T15:40:12;11.80;99.90
22968;DHT22;11650;48.106;-1.696;2022-12-07T15:42:38;11.10;99.90
22968;DHT22;11650;48.106;-1.696;2022-12-07T15:45:06;9.90;99.90
22968;DHT22;11650;48.106;-1.696;2022-12-07T15:47:40;9.60;99.90
22968;DHT22;11650;48.106;-1.696;2022-12-07T15:50:09;9.50;99.90
22968;DHT22;11650;48.106;-1.696;2022-12-07T15:52:35;8.40;99.90
22968;DHT22;11650;48.106;-1.696;2022-12-07T15:55:01;7.70;99.90
22968;DHT22;11650;48.106;-1.696;2022-12-07T15:57:33;7.20;99.90
22968;DHT22;11650;48.106;-1.696;2022-12-07T16:00:00;6.90;99.90
22968;DHT22;11650;48.106;-1.696;2022-12-07T16:02:26;6.70;99.90
22968;DHT22;11650;48.106;-1.696;2022-12-07T16:04:52;6.50;99.90
22968;DHT22;11650;48.106;-1.696;2022-12-07T16:07:18;6.40;99.90
22968;DHT22;11650;48.106;-1.696;2022-12-07T16:09:44;6.20;99.90
22968;DHT22;11650;48.106;-1.696;2022-12-07T16:12:12;6.10;99.90
22968;DHT22;11650;48.106;-1.696;2022-12-07T16:14:38;6.00;99.90
22968;DHT22;11650;48.106;-1.696;2022-12-07T16:17:05;5.80;99.90
22968;DHT22;11650;48.106;-1.696;2022-12-07T16:19:31;5.70;99.90
22968;DHT22;11650;48.106;-1.696;2022-12-07T16:21:57;5.70;99.90
22968;DHT22;11650;48.106;-1.696;2022-12-07T16:24:23;5.60;99.90
22968;DHT22;11650;48.106;-1.696;2022-12-07T16:26:48;5.50;99.90
22968;DHT22;11650;48.106;-1.696;2022-12-07T16:29:14;5.40;99.90
22968;DHT22;11650;48.106;-1.696;2022-12-07T16:31:41;5.30;99.90
22968;DHT22;11650;48.106;-1.696;2022-12-07T16:34:07;5.30;99.90
22968;DHT22;11650;48.106;-1.696;2022-12-07T16:36:35;5.10;99.90
22968;DHT22;11650;48.106;-1.696;2022-12-07T16:39:01;5.00;99.90
22968;DHT22;11650;48.106;-1.696;2022-12-07T16:41:27;4.90;99.90
22968;DHT22;11650;48.106;-1.696;2022-12-07T16:43:53;4.80;99.90
22968;DHT22;11650;48.106;-1.696;2022-12-07T16:46:18;4.80;99.90
22968;DHT22;11650;48.106;-1.696;2022-12-07T16:48:44;4.80;99.90
22968;DHT22;11650;48.106;-1.696;2022-12-07T16:51:12;4.60;99.90
22968;DHT22;11650;48.106;-1.696;2022-12-07T16:53:41;4.60;99.90
22968;DHT22;11650;48.106;-1.696;2022-12-07T16:56:12;4.60;99.90
22968;DHT22;11650;48.106;-1.696;2022-12-07T16:58:38;4.50;99.90
22968;DHT22;11650;48.106;-1.696;2022-12-07T17:01:15;4.40;99.90
22968;DHT22;11650;48.106;-1.696;2022-12-07T17:03:42;4.50;99.90
22968;DHT22;11650;48.106;-1.696;2022-12-07T17:06:16;4.40;99.90
22968;DHT22;11650;48.106;-1.696;2022-12-07T17:08:42;4.40;99.90
22968;DHT22;11650;48.106;-1.696;2022-12-07T17:11:17;4.30;99.90
22968;DHT22;11650;48.106;-1.696;2022-12-07T17:13:43;4.30;99.90
22968;DHT22;11650;48.106;-1.696;2022-12-07T17:16:28;4.20;99.90
22968;DHT22;11650;48.106;-1.696;2022-12-07T17:18:54;4.20;99.90
22968;DHT22;11650;48.106;-1.696;2022-12-07T17:21:20;4.10;99.90
22968;DHT22;11650;48.106;-1.696;2022-12-07T17:23:46;4.00;99.90
22968;DHT22;11650;48.106;-1.696;2022-12-07T17:26:23;4.00;99.90
22968;DHT22;11650;48.106;-1.696;2022-12-07T17:28:49;4.00;99.90
22968;DHT22;11650;48.106;-1.696;2022-12-07T17:31:17;3.90;99.90
22968;DHT22;11650;48.106;-1.696;2022-12-07T17:33:43;3.90;99.90
22968;DHT22;11650;48.106;-1.696;2022-12-07T17:36:12;4.00;99.90
22968;DHT22;11650;48.106;-1.696;2022-12-07T17:38:39;3.90;99.90
22968;DHT22;11650;48.106;-1.696;2022-12-07T17:41:15;3.90;99.90
22968;DHT22;11650;48.106;-1.696;2022-12-07T17:44:06;3.80;99.90
22968;DHT22;11650;48.106;-1.696;2022-12-07T17:46:33;3.80;99.90
22968;DHT22;11650;48.106;-1.696;2022-12-07T17:48:59;3.80;99.90
22968;DHT22;11650;48.106;-1.696;2022-12-07T17:51:25;3.70;99.90
22968;DHT22;11650;48.106;-1.696;2022-12-07T17:54:10;3.70;99.90
22968;DHT22;11650;48.106;-1.696;2022-12-07T17:56:37;3.70;99.90
22968;DHT22;11650;48.106;-1.696;2022-12-07T17:59:03;3.60;99.90
22968;DHT22;11650;48.106;-1.696;2022-12-07T18:01:30;3.60;99.90
22968;DHT22;11650;48.106;-1.696;2022-12-07T18:03:55;3.50;99.90
22968;DHT22;11650;48.106;-1.696;2022-12-07T18:06:21;3.40;99.90